createdAt,value
2018-04-15T00:00:14.420Z,22.4
2018-04-15T00:01:04.226Z,22.4
2018-04-15T00:01:54.851Z,22.4
2018-04-15T00:02:44.019Z,22.4
2018-04-15T00:03:34.680Z,22.4
2018-04-15T00:04:23.883Z,22.4
2018-04-15T00:05:15.583Z,22.4
2018-04-15T00:06:04.827Z,22.4
2018-04-15T00:06:54.873Z,22.4
2018-04-15T00:07:44.441Z,22.4
2018-04-15T00:08:35.090Z,22.4
2018-04-15T00:09:25.095Z,22.4
2018-04-15T00:10:15.183Z,22.4
2018-04-15T00:11:05.815Z,22.4
2018-04-15T00:11:55.055Z,22.4
2018-04-15T00:12:45.910Z,22.4
2018-04-15T00:13:35.338Z,22.4
2018-04-15T00:14:25.537Z,22.4
2018-04-15T00:15:15.290Z,22.4
2018-04-15T00:16:06.220Z,22.4
2018-04-15T00:16:56.217Z,22.4
2018-04-15T00:17:45.716Z,22.4
2018-04-15T00:18:36.047Z,22.4
2018-04-15T00:19:25.599Z,22.4
2018-04-15T00:20:15.780Z,22.4
2018-04-15T00:21:04.924Z,22.4
2018-04-15T00:21:55.547Z,22.4
2018-04-15T00:22:45.902Z,22.4
2018-04-15T00:23:35.833Z,22.4
2018-04-15T00:24:25.598Z,22.4
2018-04-15T00:25:16.060Z,22.4
2018-04-15T00:26:05.900Z,22.4
2018-04-15T00:26:55.933Z,22.4
2018-04-15T00:27:46.719Z,22.4
2018-04-15T00:28:36.566Z,22.4
2018-04-15T00:29:26.649Z,22.4
2018-04-15T00:30:16.673Z,22.4
2018-04-15T00:31:07.054Z,22.4
2018-04-15T00:31:56.841Z,22.4
2018-04-15T00:32:46.568Z,22.4
2018-04-15T00:33:36.721Z,22.4
2018-04-15T00:34:27.378Z,22.4
2018-04-15T00:35:15.451Z,22.4
2018-04-15T00:36:05.859Z,22.4
2018-04-15T00:36:56.128Z,22.4
2018-04-15T00:37:46.800Z,22.4
2018-04-15T00:38:36.276Z,22.4
2018-04-15T00:39:27.560Z,22.4
2018-04-15T00:40:17.230Z,22.4
2018-04-15T00:41:07.300Z,22.4
2018-04-15T00:41:57.250Z,22.4
2018-04-15T00:42:47.947Z,22.4
2018-04-15T00:43:37.997Z,22.4
2018-04-15T00:44:27.332Z,22.4
2018-04-15T00:45:18.094Z,22.4
2018-04-15T00:46:08.168Z,22.4
2018-04-15T00:46:58.496Z,22.4
2018-04-15T00:47:48.293Z,22.4
2018-04-15T00:48:38.369Z,22.4
2018-04-15T00:49:27.920Z,22.4
2018-04-15T00:50:17.953Z,22.4
2018-04-15T00:51:08.873Z,22.4
2018-04-15T00:51:58.088Z,22.4
2018-04-15T00:52:48.682Z,22.4
2018-04-15T00:53:39.034Z,22.4
2018-04-15T00:54:29.092Z,22.4
2018-04-15T00:55:17.782Z,22.4
2018-04-15T00:56:08.384Z,22.4
2018-04-15T00:56:59.283Z,22.4
2018-04-15T00:57:47.646Z,22.4
2018-04-15T00:58:39.400Z,22.4
2018-04-15T00:59:28.136Z,22.4
2018-04-15T01:00:19.031Z,22.4
2018-04-15T01:01:09.107Z,22.4
2018-04-15T01:01:59.393Z,22.4
2018-04-15T01:02:49.723Z,22.4
2018-04-15T01:03:39.538Z,22.4
2018-04-15T01:04:29.572Z,22.4
2018-04-15T01:05:19.330Z,22.3
2018-04-15T01:06:09.994Z,22.4
2018-04-15T01:06:59.778Z,22.4
2018-04-15T01:07:49.845Z,22.3
2018-04-15T01:08:40.197Z,22.4
2018-04-15T01:09:29.680Z,22.4
2018-04-15T01:10:20.033Z,22.3
2018-04-15T01:11:09.882Z,22.4
2018-04-15T01:12:00.177Z,22.3
2018-04-15T01:12:50.199Z,22.4
2018-04-15T01:13:40.611Z,22.4
2018-04-15T01:14:29.521Z,22.4
2018-04-15T01:15:19.891Z,22.4
2018-04-15T01:16:09.739Z,22.4
2018-04-15T01:17:00.374Z,22.3
2018-04-15T01:17:49.581Z,22.3
2018-04-15T01:18:39.600Z,22.3
2018-04-15T01:19:29.737Z,22.4
2018-04-15T01:20:19.534Z,22.3
2018-04-15T01:21:10.108Z,22.3
2018-04-15T01:22:01.197Z,22.3
2018-04-15T01:22:50.428Z,22.3
2018-04-15T01:23:39.948Z,22.3
2018-04-15T01:24:30.878Z,22.3
2018-04-15T01:25:21.543Z,22.3
2018-04-15T01:26:10.753Z,22.3
2018-04-15T01:27:01.027Z,22.3
2018-04-15T01:27:50.815Z,22.3
2018-04-15T01:28:41.702Z,22.3
2018-04-15T01:29:31.777Z,22.3
2018-04-15T01:30:21.332Z,22.3
2018-04-15T01:31:11.102Z,22.3
2018-04-15T01:32:01.105Z,22.3
2018-04-15T01:32:51.784Z,22.3
2018-04-15T01:33:40.759Z,22.3
2018-04-15T01:34:31.092Z,22.3
2018-04-15T01:35:21.749Z,22.3
2018-04-15T01:36:12.374Z,22.3
2018-04-15T01:37:01.821Z,22.3
2018-04-15T01:37:52.149Z,22.3
2018-04-15T01:38:41.375Z,22.3
2018-04-15T01:39:31.734Z,22.3
2018-04-15T01:40:22.607Z,22.3
2018-04-15T01:41:12.432Z,22.3
2018-04-15T01:42:01.655Z,22.3
2018-04-15T01:42:52.245Z,22.3
2018-04-15T01:43:41.507Z,22.3
2018-04-15T01:44:31.564Z,22.3
2018-04-15T01:45:21.919Z,22.3
2018-04-15T01:46:12.231Z,22.3
2018-04-15T01:47:02.593Z,22.3
2018-04-15T01:47:52.658Z,22.3
2018-04-15T01:48:42.193Z,22.3
2018-04-15T01:49:32.750Z,22.3
2018-04-15T01:50:22.320Z,22.3
2018-04-15T01:51:12.620Z,22.3
2018-04-15T01:52:02.666Z,22.3
2018-04-15T01:52:53.336Z,22.3
2018-04-15T01:53:42.635Z,22.3
2018-04-15T01:54:33.140Z,22.3
2018-04-15T01:55:23.525Z,22.3
2018-04-15T01:56:12.710Z,22.3
2018-04-15T01:57:03.642Z,22.3
2018-04-15T01:57:53.681Z,22.3
2018-04-15T01:58:43.457Z,22.3
2018-04-15T01:59:33.230Z,22.3
2018-04-15T02:00:24.147Z,22.3
2018-04-15T02:01:13.697Z,22.3
2018-04-15T02:02:03.274Z,22.3
2018-04-15T02:02:53.854Z,22.3
2018-04-15T02:03:43.041Z,22.3
2018-04-15T02:04:33.696Z,22.3
2018-04-15T02:05:23.179Z,22.3
2018-04-15T02:06:13.779Z,22.3
2018-04-15T02:07:03.584Z,22.3
2018-04-15T02:07:53.937Z,22.3
2018-04-15T02:08:44.314Z,22.3
2018-04-15T02:09:34.040Z,22.3
2018-04-15T02:10:24.599Z,22.3
2018-04-15T02:11:14.705Z,22.3
2018-04-15T02:12:03.922Z,22.3
2018-04-15T02:12:54.792Z,22.3
2018-04-15T02:13:44.587Z,22.3
2018-04-15T02:14:35.028Z,22.3
2018-04-15T02:15:23.638Z,22.3
2018-04-15T02:16:15.337Z,22.3
2018-04-15T02:17:05.123Z,22.3
2018-04-15T02:17:54.639Z,22.3
2018-04-15T02:18:45.267Z,22.3
2018-04-15T02:19:34.516Z,22.2
2018-04-15T02:20:25.120Z,22.3
2018-04-15T02:21:14.366Z,22.2
2018-04-15T02:22:04.978Z,22.3
2018-04-15T02:22:55.910Z,22.3
2018-04-15T02:23:45.615Z,22.3
2018-04-15T02:24:35.957Z,22.2
2018-04-15T02:25:25.224Z,22.2
2018-04-15T02:26:16.114Z,22.2
2018-04-15T02:27:06.195Z,22.2
2018-04-15T02:27:55.394Z,22.2
2018-04-15T02:28:45.417Z,22.2
2018-04-15T02:29:35.754Z,22.2
2018-04-15T02:30:25.598Z,22.3
2018-04-15T02:31:15.937Z,22.2
2018-04-15T02:32:06.068Z,22.3
2018-04-15T02:32:55.789Z,22.2
2018-04-15T02:33:46.221Z,22.2
2018-04-15T02:34:36.777Z,22.2
2018-04-15T02:35:25.708Z,22.2
2018-04-15T02:36:16.377Z,22.2
2018-04-15T02:37:06.729Z,22.2
2018-04-15T02:37:55.909Z,22.2
2018-04-15T02:38:46.881Z,22.2
2018-04-15T02:39:35.201Z,22.2
2018-04-15T02:40:26.749Z,22.2
2018-04-15T02:41:16.179Z,22.2
2018-04-15T02:42:05.995Z,22.2
2018-04-15T02:42:57.136Z,22.2
2018-04-15T02:43:46.355Z,22.2
2018-04-15T02:44:37.247Z,22.2
2018-04-15T02:45:27.361Z,22.2
2018-04-15T02:46:16.859Z,22.2
2018-04-15T02:47:07.513Z,22.2
2018-04-15T02:47:57.256Z,22.2
2018-04-15T02:48:47.576Z,22.2
2018-04-15T02:49:36.551Z,22.2
2018-04-15T02:50:27.141Z,22.2
2018-04-15T02:51:18.067Z,22.2
2018-04-15T02:52:07.561Z,22.2
2018-04-15T02:52:57.056Z,22.2
2018-04-15T02:53:46.862Z,22.1
2018-04-15T02:54:37.738Z,22.2
2018-04-15T02:55:27.829Z,22.1
2018-04-15T02:56:16.726Z,22.2
2018-04-15T02:57:07.381Z,22.1
2018-04-15T02:57:57.984Z,22.2
2018-04-15T02:58:48.653Z,22.2
2018-04-15T02:59:38.103Z,22.1
2018-04-15T03:00:27.896Z,22.2
2018-04-15T03:01:18.543Z,22.2
2018-04-15T03:02:08.024Z,22.2
2018-04-15T03:02:58.733Z,22.1
2018-04-15T03:03:48.175Z,22.1
2018-04-15T03:04:37.958Z,22.1
2018-04-15T03:05:28.293Z,22.1
2018-04-15T03:06:18.633Z,22.1
2018-04-15T03:07:08.409Z,22.2
2018-04-15T03:07:59.305Z,22.2
2018-04-15T03:08:48.550Z,22.1
2018-04-15T03:09:39.383Z,22.2
2018-04-15T03:10:29.503Z,22.1
2018-04-15T03:11:18.732Z,22.2
2018-04-15T03:12:08.282Z,22.1
2018-04-15T03:12:59.432Z,22.2
2018-04-15T03:13:48.668Z,22.1
2018-04-15T03:14:38.957Z,22.1
2018-04-15T03:15:29.002Z,22.1
2018-04-15T03:16:19.343Z,22.1
2018-04-15T03:17:09.691Z,22.1
2018-04-15T03:17:59.486Z,22.1
2018-04-15T03:18:49.578Z,22.1
2018-04-15T03:19:39.791Z,22.1
2018-04-15T03:20:30.263Z,22.1
2018-04-15T03:21:19.769Z,22.1
2018-04-15T03:22:09.302Z,22.1
2018-04-15T03:22:59.876Z,22.1
2018-04-15T03:23:50.271Z,22.1
2018-04-15T03:24:39.998Z,22.1
2018-04-15T03:25:30.856Z,22.1
2018-04-15T03:26:20.409Z,22.1
2018-04-15T03:27:10.203Z,22.1
2018-04-15T03:28:00.061Z,22.1
2018-04-15T03:28:50.650Z,22.1
2018-04-15T03:29:40.415Z,22.1
2018-04-15T03:30:30.562Z,22.1
2018-04-15T03:31:20.225Z,22.1
2018-04-15T03:32:10.647Z,22.1
2018-04-15T03:33:00.168Z,22.1
2018-04-15T03:33:51.042Z,22.1
2018-04-15T03:34:40.215Z,22.1
2018-04-15T03:35:30.877Z,22.1
2018-04-15T03:36:20.633Z,22.1
2018-04-15T03:37:11.522Z,22.1
2018-04-15T03:38:01.038Z,22.1
2018-04-15T03:38:50.532Z,22.1
2018-04-15T03:39:41.627Z,22.1
2018-04-15T03:40:31.492Z,22.1
2018-04-15T03:41:21.011Z,22.1
2018-04-15T03:42:11.629Z,22.1
2018-04-15T03:43:01.732Z,22.1
2018-04-15T03:43:51.386Z,22.1
2018-04-15T03:44:41.559Z,22.1
2018-04-15T03:45:30.484Z,22.1
2018-04-15T03:46:21.038Z,22.1
2018-04-15T03:47:11.459Z,22.1
2018-04-15T03:48:01.811Z,22.1
2018-04-15T03:48:51.277Z,22.1
2018-04-15T03:49:41.921Z,22.1
2018-04-15T03:50:32.036Z,22.1
2018-04-15T03:51:21.826Z,22.1
2018-04-15T03:52:12.398Z,22.1
2018-04-15T03:53:02.733Z,22.1
2018-04-15T03:53:52.480Z,22.1
2018-04-15T03:54:42.611Z,22.1
2018-04-15T03:55:31.569Z,22.1
2018-04-15T03:56:22.394Z,22.1
2018-04-15T03:57:12.786Z,22.1
2018-04-15T03:58:01.737Z,22.1
2018-04-15T03:58:52.913Z,22.1
2018-04-15T03:59:42.682Z,22.1
2018-04-15T04:00:32.453Z,22.1
2018-04-15T04:01:23.078Z,22.1
2018-04-15T04:02:12.669Z,22.1
2018-04-15T04:03:02.941Z,22.1
2018-04-15T04:03:53.000Z,22
2018-04-15T04:04:43.143Z,22.1
2018-04-15T04:05:33.396Z,22.1
2018-04-15T04:06:23.451Z,22.1
2018-04-15T04:07:13.296Z,22.1
2018-04-15T04:08:03.618Z,22.1
2018-04-15T04:08:53.093Z,22.1
2018-04-15T04:09:43.725Z,22.1
2018-04-15T04:10:33.521Z,22.1
2018-04-15T04:11:23.840Z,22.1
2018-04-15T04:12:14.195Z,22
2018-04-15T04:13:02.849Z,22.1
2018-04-15T04:13:54.014Z,22.1
2018-04-15T04:14:43.250Z,22.1
2018-04-15T04:15:33.610Z,22.1
2018-04-15T04:16:23.141Z,22.1
2018-04-15T04:17:14.037Z,22
2018-04-15T04:18:03.830Z,22
2018-04-15T04:18:54.148Z,22
2018-04-15T04:19:44.260Z,22
2018-04-15T04:20:35.186Z,22
2018-04-15T04:21:24.058Z,22.1
2018-04-15T04:22:14.403Z,22.1
2018-04-15T04:23:04.764Z,22
2018-04-15T04:23:54.820Z,22.1
2018-04-15T04:24:44.252Z,22.1
2018-04-15T04:25:34.083Z,22.1
2018-04-15T04:26:24.120Z,22
2018-04-15T04:27:14.792Z,22.1
2018-04-15T04:28:04.577Z,22.1
2018-04-15T04:28:54.065Z,22
2018-04-15T04:29:45.262Z,22.1
2018-04-15T04:30:34.756Z,22.1
2018-04-15T04:31:25.404Z,22
2018-04-15T04:32:14.911Z,22.1
2018-04-15T04:33:05.360Z,22
2018-04-15T04:33:55.885Z,22
2018-04-15T04:34:44.562Z,22
2018-04-15T04:35:35.691Z,22.1
2018-04-15T04:36:25.741Z,22
2018-04-15T04:37:15.295Z,22
2018-04-15T04:38:05.335Z,22.1
2018-04-15T04:38:55.414Z,22
2018-04-15T04:39:46.216Z,22
2018-04-15T04:40:35.826Z,22
2018-04-15T04:41:26.140Z,22
2018-04-15T04:42:15.634Z,22
2018-04-15T04:43:06.569Z,22.1
2018-04-15T04:43:54.934Z,22.1
2018-04-15T04:44:46.166Z,22.1
2018-04-15T04:45:35.934Z,22.1
2018-04-15T04:46:26.811Z,22.1
2018-04-15T04:47:16.600Z,22.1
2018-04-15T04:48:06.629Z,22.1
2018-04-15T04:48:56.444Z,22
2018-04-15T04:49:46.273Z,22.1
2018-04-15T04:50:36.823Z,22.1
2018-04-15T04:51:26.084Z,22.1
2018-04-15T04:52:17.338Z,22.1
2018-04-15T04:53:06.189Z,22.1
2018-04-15T04:53:56.527Z,22.1
2018-04-15T04:54:46.083Z,22.1
2018-04-15T04:55:36.933Z,22.1
2018-04-15T04:56:26.741Z,22.1
2018-04-15T04:57:17.626Z,22.1
2018-04-15T04:58:07.661Z,22.1
2018-04-15T04:58:57.249Z,22.1
2018-04-15T04:59:47.262Z,22.1
2018-04-15T05:00:36.789Z,22.1
2018-04-15T05:01:27.677Z,22.1
2018-04-15T05:02:18.025Z,22.1
2018-04-15T05:03:07.236Z,22.1
2018-04-15T05:03:58.089Z,22.1
2018-04-15T05:04:47.694Z,22.1
2018-04-15T05:05:38.270Z,22.1
2018-04-15T05:06:28.023Z,22.1
2018-04-15T05:07:17.609Z,22.1
2018-04-15T05:08:06.795Z,22.1
2018-04-15T05:08:57.740Z,22.1
2018-04-15T05:09:47.367Z,22.1
2018-04-15T05:10:37.439Z,22.1
2018-04-15T05:11:26.898Z,22.1
2018-04-15T05:12:16.800Z,22.1
2018-04-15T05:13:08.373Z,22.1
2018-04-15T05:13:58.649Z,22.1
2018-04-15T05:14:47.856Z,22.1
2018-04-15T05:15:37.462Z,22.1
2018-04-15T05:16:29.132Z,22.1
2018-04-15T05:17:18.904Z,22.1
2018-04-15T05:18:08.409Z,22.1
2018-04-15T05:18:58.779Z,22.1
2018-04-15T05:19:47.456Z,22.1
2018-04-15T05:20:38.869Z,22.1
2018-04-15T05:21:29.173Z,22.1
2018-04-15T05:22:18.464Z,22.1
2018-04-15T05:23:47.305Z,22.1
2018-04-15T05:24:37.843Z,22.2
2018-04-15T05:25:28.255Z,22.2
2018-04-15T05:26:16.949Z,22.1
2018-04-15T05:27:08.081Z,22.1
2018-04-15T05:27:58.142Z,22.1
2018-04-15T05:28:47.935Z,22.1
2018-04-15T05:29:38.593Z,22.1
2018-04-15T05:30:27.773Z,22.1
2018-04-15T05:31:17.593Z,22.1
2018-04-15T05:32:07.898Z,22.1
2018-04-15T05:32:58.508Z,22.1
2018-04-15T05:33:48.331Z,22.1
2018-04-15T05:34:38.379Z,22.1
2018-04-15T05:35:29.003Z,22.1
2018-04-15T05:36:19.068Z,22.1
2018-04-15T05:37:08.562Z,22.1
2018-04-15T05:37:59.156Z,22.1
2018-04-15T05:38:48.665Z,22.1
2018-04-15T05:39:38.670Z,22.1
2018-04-15T05:40:29.040Z,22.1
2018-04-15T05:41:19.096Z,22.1
2018-04-15T05:42:08.970Z,22.1
2018-04-15T05:42:59.544Z,22.1
2018-04-15T05:43:49.610Z,22.1
2018-04-15T05:44:39.466Z,22.1
2018-04-15T05:45:29.208Z,22.1
2018-04-15T05:46:18.765Z,22.1
2018-04-15T05:47:08.461Z,22.1
2018-04-15T05:47:58.515Z,22.1
2018-04-15T05:48:49.727Z,22.1
2018-04-15T05:49:39.240Z,22.1
2018-04-15T05:50:28.457Z,22.1
2018-04-15T05:51:19.341Z,22.1
2018-04-15T05:52:09.155Z,22.1
2018-04-15T05:52:59.485Z,22.1
2018-04-15T05:53:50.496Z,22.1
2018-04-15T05:54:39.861Z,22.1
2018-04-15T05:55:29.640Z,22.1
2018-04-15T05:56:18.995Z,22.1
2018-04-15T05:57:09.807Z,22.1
2018-04-15T05:58:00.491Z,22.1
2018-04-15T05:58:50.817Z,22.1
2018-04-15T05:59:40.641Z,22.1
2018-04-15T06:00:30.600Z,22.1
2018-04-15T06:01:20.149Z,22.1
2018-04-15T06:02:10.449Z,22.1
2018-04-15T06:03:00.543Z,22.1
2018-04-15T06:03:50.863Z,22.1
2018-04-15T06:04:40.923Z,22.1
2018-04-15T06:05:30.727Z,22.1
2018-04-15T06:06:19.935Z,22.1
2018-04-15T06:07:11.124Z,22.1
2018-04-15T06:08:00.336Z,22.1
2018-04-15T06:08:51.209Z,22.1
2018-04-15T06:09:41.041Z,22.1
2018-04-15T06:10:30.256Z,22.1
2018-04-15T06:11:21.173Z,22.1
2018-04-15T06:12:11.481Z,22.1
2018-04-15T06:13:01.026Z,22.1
2018-04-15T06:13:51.626Z,22.1
2018-04-15T06:14:40.873Z,22.1
2018-04-15T06:15:32.072Z,22.1
2018-04-15T06:16:21.781Z,22.1
2018-04-15T06:17:11.375Z,22.1
2018-04-15T06:18:01.686Z,22.1
2018-04-15T06:18:52.322Z,22.1
2018-04-15T06:19:41.771Z,22.1
2018-04-15T06:20:31.865Z,22.1
2018-04-15T06:21:21.654Z,22.1
2018-04-15T06:22:12.562Z,22.1
2018-04-15T06:23:01.475Z,22.1
2018-04-15T06:23:52.108Z,22.1
2018-04-15T06:24:42.100Z,22.1
2018-04-15T06:25:32.827Z,22.1
2018-04-15T06:26:22.330Z,22.1
2018-04-15T06:27:11.775Z,22.1
2018-04-15T06:28:01.847Z,22.1
2018-04-15T06:28:52.808Z,22.1
2018-04-15T06:29:42.550Z,22.1
2018-04-15T06:30:32.460Z,22.1
2018-04-15T06:31:22.707Z,22.1
2018-04-15T06:32:13.051Z,22.1
2018-04-15T06:33:03.267Z,22.1
2018-04-15T06:33:52.899Z,22.1
2018-04-15T06:34:42.732Z,22.1
2018-04-15T06:35:33.015Z,22.1
2018-04-15T06:36:23.101Z,22.1
2018-04-15T06:37:12.875Z,22.1
2018-04-15T06:38:03.218Z,22.1
2018-04-15T06:38:52.576Z,22.1
2018-04-15T06:39:43.484Z,22.1
2018-04-15T06:40:33.390Z,22.1
2018-04-15T06:41:23.194Z,22.1
2018-04-15T06:42:13.256Z,22.1
2018-04-15T06:43:03.911Z,22.1
2018-04-15T06:43:52.800Z,22.1
2018-04-15T06:44:44.067Z,22.1
2018-04-15T06:45:33.203Z,22.1
2018-04-15T06:46:23.581Z,22.1
2018-04-15T06:47:13.885Z,22.1
2018-04-15T06:48:04.207Z,22.1
2018-04-15T06:48:53.458Z,22.1
2018-04-15T06:49:44.123Z,22.1
2018-04-15T06:50:34.771Z,22.1
2018-04-15T06:51:24.444Z,22.1
2018-04-15T06:52:13.963Z,22.1
2018-04-15T06:53:04.646Z,22.1
2018-04-15T06:53:54.611Z,22.1
2018-04-15T06:54:44.757Z,22.1
2018-04-15T06:55:33.382Z,22.1
2018-04-15T06:56:25.223Z,22.1
2018-04-15T06:57:15.269Z,22.1
2018-04-15T06:58:04.706Z,22.1
2018-04-15T06:58:54.772Z,22.1
2018-04-15T06:59:44.875Z,22.1
2018-04-15T07:00:35.147Z,22.1
2018-04-15T07:01:24.662Z,22.1
2018-04-15T07:02:14.710Z,22.1
2018-04-15T07:03:04.228Z,22.1
2018-04-15T07:03:54.616Z,22.1
2018-04-15T07:04:44.943Z,22.1
2018-04-15T07:05:35.839Z,22.1
2018-04-15T07:06:24.234Z,22.1
2018-04-15T07:07:15.191Z,22.1
2018-04-15T07:08:05.251Z,22.1
2018-04-15T07:08:55.594Z,22.1
2018-04-15T07:09:46.536Z,22.1
2018-04-15T07:10:36.214Z,22.1
2018-04-15T07:11:25.549Z,22.1
2018-04-15T07:12:16.094Z,22.1
2018-04-15T07:13:05.818Z,22.1
2018-04-15T07:13:55.605Z,22.1
2018-04-15T07:14:45.373Z,22.1
2018-04-15T07:15:36.308Z,22.1
2018-04-15T07:16:25.927Z,22.2
2018-04-15T07:17:15.917Z,22.2
2018-04-15T07:18:05.994Z,22.3
2018-04-15T07:18:56.574Z,22.3
2018-04-15T07:19:46.616Z,22.4
2018-04-15T07:20:35.270Z,22.5
2018-04-15T07:21:26.214Z,22.6
2018-04-15T07:22:15.722Z,22.6
2018-04-15T07:23:06.461Z,22.7
2018-04-15T07:23:56.741Z,22.7
2018-04-15T07:24:46.361Z,22.8
2018-04-15T07:25:35.689Z,22.8
2018-04-15T07:26:26.724Z,22.8
2018-04-15T07:27:17.207Z,22.8
2018-04-15T07:28:06.773Z,22.8
2018-04-15T07:28:57.133Z,22.9
2018-04-15T07:29:46.552Z,22.9
2018-04-15T07:30:37.261Z,22.9
2018-04-15T07:31:27.000Z,22.9
2018-04-15T07:32:17.596Z,22.9
2018-04-15T07:33:06.561Z,22.9
2018-04-15T07:33:57.178Z,22.9
2018-04-15T07:34:47.853Z,22.9
2018-04-15T07:35:36.996Z,22.9
2018-04-15T07:36:28.319Z,22.9
2018-04-15T07:37:18.200Z,22.9
2018-04-15T07:38:08.024Z,22.9
2018-04-15T07:38:57.620Z,22.9
2018-04-15T07:39:48.166Z,22.9
2018-04-15T07:40:38.500Z,22.9
2018-04-15T07:41:28.605Z,23
2018-04-15T07:42:17.813Z,23
2018-04-15T07:43:07.606Z,23.1
2018-04-15T07:43:57.632Z,23.1
2018-04-15T07:44:47.997Z,23
2018-04-15T07:45:38.924Z,23
2018-04-15T07:46:29.066Z,23.1
2018-04-15T07:47:18.517Z,23.1
2018-04-15T07:48:08.582Z,23.1
2018-04-15T07:48:59.153Z,23.1
2018-04-15T07:49:48.995Z,23.1
2018-04-15T07:50:39.578Z,23.1
2018-04-15T07:51:28.757Z,23.1
2018-04-15T07:52:19.402Z,23.1
2018-04-15T07:53:09.194Z,23.1
2018-04-15T07:53:59.530Z,23.1
2018-04-15T07:54:49.351Z,23.1
2018-04-15T07:55:39.374Z,23.1
2018-04-15T07:56:29.449Z,23.1
2018-04-15T07:57:19.222Z,23.1
2018-04-15T07:58:08.747Z,23.1
2018-04-15T07:58:59.627Z,23.1
2018-04-15T07:59:49.441Z,23.1
2018-04-15T08:00:39.787Z,23.1
2018-04-15T08:01:30.117Z,23.1
2018-04-15T08:02:19.929Z,23.1
2018-04-15T08:03:09.683Z,23.1
2018-04-15T08:04:00.014Z,23.1
2018-04-15T08:04:50.372Z,23.1
2018-04-15T08:05:39.871Z,23.1
2018-04-15T08:06:29.981Z,23.1
2018-04-15T08:07:19.737Z,23.1
2018-04-15T08:08:09.588Z,23.1
2018-04-15T08:09:00.146Z,23.1
2018-04-15T08:09:50.254Z,23.1
2018-04-15T08:10:40.841Z,23.1
2018-04-15T08:11:30.611Z,23.1
2018-04-15T08:12:20.099Z,23.1
2018-04-15T08:13:11.026Z,23.1
2018-04-15T08:14:01.095Z,23.1
2018-04-15T08:14:50.602Z,23.2
2018-04-15T08:15:41.205Z,23.1
2018-04-15T08:16:31.013Z,23.1
2018-04-15T08:17:21.585Z,23.1
2018-04-15T08:18:10.556Z,23.1
2018-04-15T08:19:01.201Z,23.1
2018-04-15T08:19:50.803Z,23.1
2018-04-15T08:20:41.371Z,23.1
2018-04-15T08:21:31.165Z,23.1
2018-04-15T08:22:21.146Z,23.1
2018-04-15T08:23:10.689Z,23.2
2018-04-15T08:24:01.286Z,23.2
2018-04-15T08:24:51.909Z,23.2
2018-04-15T08:25:41.730Z,23.2
2018-04-15T08:26:31.468Z,23.2
2018-04-15T08:27:21.580Z,23.2
2018-04-15T08:28:11.940Z,23.2
2018-04-15T08:29:01.714Z,23.2
2018-04-15T08:29:51.456Z,23.3
2018-04-15T08:30:41.872Z,23.2
2018-04-15T08:31:32.144Z,23.2
2018-04-15T08:32:21.922Z,23.2
2018-04-15T08:33:11.783Z,23.2
2018-04-15T08:34:02.445Z,23.2
2018-04-15T08:34:52.232Z,23.3
2018-04-15T08:35:41.900Z,23.3
2018-04-15T08:36:32.425Z,23.2
2018-04-15T08:37:22.304Z,23.3
2018-04-15T08:38:12.640Z,23.3
2018-04-15T08:39:02.165Z,23.3
2018-04-15T08:39:52.490Z,23.3
2018-04-15T08:40:42.872Z,23.3
2018-04-15T08:41:32.737Z,23.3
2018-04-15T08:42:22.567Z,23.3
2018-04-15T08:43:12.625Z,23.3
2018-04-15T08:44:03.101Z,23.3
2018-04-15T08:44:53.156Z,23.3
2018-04-15T08:45:42.996Z,23.3
2018-04-15T08:46:33.318Z,23.3
2018-04-15T08:47:23.242Z,23.3
2018-04-15T08:48:12.640Z,23.3
2018-04-15T08:49:02.476Z,23.3
2018-04-15T08:49:53.046Z,23.3
2018-04-15T08:50:42.799Z,23.3
2018-04-15T08:51:32.960Z,23.3
2018-04-15T08:52:23.288Z,23.3
2018-04-15T08:53:13.539Z,23.3
2018-04-15T08:54:03.878Z,23.3
2018-04-15T08:54:53.666Z,23.3
2018-04-15T08:55:43.729Z,23.3
2018-04-15T08:56:34.084Z,23.3
2018-04-15T08:57:23.686Z,23.3
2018-04-15T08:58:13.751Z,23.3
2018-04-15T08:59:04.282Z,23.3
2018-04-15T08:59:54.630Z,23.3
2018-04-15T09:00:44.761Z,23.3
2018-04-15T09:01:34.762Z,23.3
2018-04-15T09:02:24.275Z,23.3
2018-04-15T09:03:13.613Z,23.3
2018-04-15T09:04:04.133Z,23.3
2018-04-15T09:04:54.474Z,23.4
2018-04-15T09:05:44.528Z,23.4
2018-04-15T09:06:34.350Z,23.3
2018-04-15T09:07:24.653Z,23.3
2018-04-15T09:08:14.207Z,23.3
2018-04-15T09:09:05.279Z,23.3
2018-04-15T09:09:55.365Z,23.4
2018-04-15T09:10:44.632Z,23.4
2018-04-15T09:11:35.045Z,23.3
2018-04-15T09:12:24.483Z,23.3
2018-04-15T09:13:15.137Z,23.3
2018-04-15T09:14:05.259Z,23.3
2018-04-15T09:14:55.810Z,23.3
2018-04-15T09:15:44.491Z,23.3
2018-04-15T09:16:35.515Z,23.4
2018-04-15T09:17:25.079Z,23.3
2018-04-15T09:18:16.266Z,23.3
2018-04-15T09:19:04.869Z,23.3
2018-04-15T09:19:55.224Z,23.3
2018-04-15T09:20:44.764Z,23.3
2018-04-15T09:21:35.484Z,23.3
2018-04-15T09:22:26.026Z,23.3
2018-04-15T09:23:15.394Z,23.3
2018-04-15T09:24:05.706Z,23.3
2018-04-15T09:24:55.489Z,23.3
2018-04-15T09:25:45.816Z,23.3
2018-04-15T09:26:36.791Z,23.3
2018-04-15T09:27:25.914Z,23.3
2018-04-15T09:28:16.051Z,23.3
2018-04-15T09:29:06.100Z,23.3
2018-04-15T09:29:56.231Z,23.3
2018-04-15T09:30:46.491Z,23.3
2018-04-15T09:31:36.096Z,23.3
2018-04-15T09:32:26.918Z,23.3
2018-04-15T09:33:16.416Z,23.3
2018-04-15T09:34:07.268Z,23.3
2018-04-15T09:34:57.042Z,23.3
2018-04-15T09:35:46.993Z,23.3
2018-04-15T09:36:37.219Z,23.3
2018-04-15T09:37:27.092Z,23.4
2018-04-15T09:38:16.745Z,23.4
2018-04-15T09:39:06.566Z,23.3
2018-04-15T09:39:56.907Z,23.3
2018-04-15T09:40:46.125Z,23.3
2018-04-15T09:41:37.941Z,23.3
2018-04-15T09:42:27.384Z,23.3
2018-04-15T09:43:17.529Z,23.3
2018-04-15T09:44:08.087Z,23.3
2018-04-15T09:44:57.264Z,23.3
2018-04-15T09:45:47.876Z,23.3
2018-04-15T09:46:37.986Z,23.3
2018-04-15T09:47:28.010Z,23.3
2018-04-15T09:48:17.631Z,23.3
2018-04-15T09:49:07.956Z,23.3
2018-04-15T09:49:57.976Z,23.3
2018-04-15T09:50:48.034Z,23.3
2018-04-15T09:51:37.800Z,23.3
2018-04-15T09:52:27.851Z,23.3
2018-04-15T09:53:17.942Z,23.3
2018-04-15T09:54:08.051Z,23.3
2018-04-15T09:54:58.616Z,23.3
2018-04-15T09:55:48.402Z,23.2
2018-04-15T09:56:38.830Z,23.2
2018-04-15T09:57:28.354Z,23.3
2018-04-15T09:58:18.108Z,23.2
2018-04-15T09:59:07.581Z,23.3
2018-04-15T09:59:58.748Z,23.2
2018-04-15T10:00:48.767Z,23.3
2018-04-15T10:01:38.583Z,23.3
2018-04-15T10:02:27.560Z,23.2
2018-04-15T10:03:19.279Z,23.2
2018-04-15T10:04:09.351Z,23.2
2018-04-15T10:04:58.842Z,23.1
2018-04-15T10:05:49.472Z,23.1
2018-04-15T10:06:38.814Z,23.1
2018-04-15T10:07:29.908Z,23.1
2018-04-15T10:08:19.982Z,23.1
2018-04-15T10:09:09.399Z,23.1
2018-04-15T10:09:59.528Z,23.1
2018-04-15T10:10:49.977Z,23.1
2018-04-15T10:11:40.222Z,23.1
2018-04-15T10:12:29.752Z,23.1
2018-04-15T10:13:20.324Z,23.1
2018-04-15T10:14:10.092Z,23.1
2018-04-15T10:14:59.313Z,23.1
2018-04-15T10:15:49.932Z,23.1
2018-04-15T10:16:40.026Z,23.1
2018-04-15T10:17:29.772Z,23.1
2018-04-15T10:18:20.421Z,23.1
2018-04-15T10:19:09.639Z,23.1
2018-04-15T10:20:00.001Z,23
2018-04-15T10:20:50.021Z,23.1
2018-04-15T10:21:40.384Z,23.1
2018-04-15T10:22:30.715Z,23
2018-04-15T10:23:20.239Z,23
2018-04-15T10:24:12.082Z,23
2018-04-15T10:25:00.339Z,23
2018-04-15T10:25:51.003Z,23
2018-04-15T10:26:40.810Z,23
2018-04-15T10:27:31.114Z,23
2018-04-15T10:28:21.174Z,23
2018-04-15T10:29:11.531Z,23
2018-04-15T10:30:00.453Z,23
2018-04-15T10:30:51.393Z,22.9
2018-04-15T10:31:40.876Z,22.9
2018-04-15T10:32:31.512Z,23
2018-04-15T10:33:21.813Z,23
2018-04-15T10:34:10.012Z,23
2018-04-15T10:35:00.344Z,23
2018-04-15T10:35:51.266Z,22.9
2018-04-15T10:36:41.588Z,22.9
2018-04-15T10:37:31.645Z,22.9
2018-04-15T10:38:21.463Z,22.9
2018-04-15T10:39:10.961Z,22.9
2018-04-15T10:40:01.028Z,22.9
2018-04-15T10:40:50.493Z,22.9
2018-04-15T10:41:41.941Z,22.9
2018-04-15T10:42:31.701Z,22.9
2018-04-15T10:43:22.617Z,22.9
2018-04-15T10:44:12.140Z,22.9
2018-04-15T10:45:01.071Z,22.9
2018-04-15T10:45:52.235Z,22.9
2018-04-15T10:46:41.759Z,22.9
2018-04-15T10:47:32.691Z,22.9
2018-04-15T10:48:22.989Z,22.9
2018-04-15T10:49:12.529Z,22.9
2018-04-15T10:50:02.272Z,22.9
2018-04-15T10:50:52.925Z,22.9
2018-04-15T10:51:42.172Z,22.9
2018-04-15T10:52:32.784Z,22.9
2018-04-15T10:53:23.341Z,22.9
2018-04-15T10:54:12.682Z,22.9
2018-04-15T10:55:03.499Z,22.9
2018-04-15T10:55:52.538Z,22.9
2018-04-15T10:56:43.379Z,22.9
2018-04-15T10:57:32.366Z,22.9
2018-04-15T10:58:23.215Z,22.9
2018-04-15T10:59:13.249Z,22.9
2018-04-15T11:00:03.604Z,22.8
2018-04-15T11:00:53.188Z,22.9
2018-04-15T11:01:43.792Z,22.8
2018-04-15T11:02:33.622Z,22.9
2018-04-15T11:03:22.867Z,22.8
2018-04-15T11:04:13.406Z,22.9
2018-04-15T11:05:03.473Z,22.9
2018-04-15T11:05:53.876Z,22.9
2018-04-15T11:06:44.165Z,23
2018-04-15T11:07:33.619Z,23
2018-04-15T11:08:23.498Z,23.1
2018-04-15T11:09:13.796Z,23.1